Time;durP1;ratioP1;P1;durP2;ratioP2;P2;SDS_P1;SDS_P2;PMS_P1;PMS_P2;Temp;Humidity;BMP_temperature;BMP_pressure;BME280_temperature;BME280_humidity;BME280_pressure;Samples;Min_cycle;Max_cycle;Signal;HPM_P1;HPM_P2
2022/07/26 00:01:30;;;;;;;20.52;2.80;;;18.10;99.90;;;;;;5054444;28;20229;-73
2022/07/26 00:03:56;;;;;;;15.98;2.58;;;18.20;99.90;;;;;;5000055;28;20447;-70
2022/07/26 00:06:22;;;;;;;19.00;2.90;;;18.10;99.90;;;;;;5052058;28;20040;-70
2022/07/26 00:08:48;;;;;;;16.77;2.80;;;18.00;99.90;;;;;;5054209;28;20678;-70
2022/07/26 00:11:14;;;;;;;15.75;2.35;;;18.00;99.90;;;;;;5053920;28;20040;-70
2022/07/26 00:13:40;;;;;;;14.43;2.38;;;18.10;99.90;;;;;;5052461;28;20041;-72
2022/07/26 00:16:06;;;;;;;20.00;2.92;;;18.00;99.90;;;;;;5055318;28;20094;-71
2022/07/26 00:18:32;;;;;;;14.73;2.53;;;17.90;99.90;;;;;;5051662;28;20542;-73
2022/07/26 00:20:58;;;;;;;17.05;2.42;;;17.90;99.90;;;;;;5052367;28;20036;-70
2022/07/26 00:23:24;;;;;;;17.00;2.80;;;17.80;99.90;;;;;;5052455;28;20041;-70
2022/07/26 00:25:50;;;;;;;20.08;2.55;;;17.80;99.90;;;;;;5014338;28;20293;-70
2022/07/26 00:28:15;;;;;;;17.73;2.67;;;17.80;99.90;;;;;;5048743;28;20040;-69
2022/07/26 00:30:41;;;;;;;18.98;3.17;;;17.80;99.90;;;;;;5053931;28;20047;-71
2022/07/26 00:33:07;;;;;;;15.98;2.88;;;17.80;99.90;;;;;;5031248;28;20048;-71
2022/07/26 00:35:33;;;;;;;17.45;2.67;;;17.80;99.90;;;;;;5035251;28;20144;-69
2022/07/26 00:37:59;;;;;;;15.00;2.13;;;17.80;99.90;;;;;;5033067;28;20048;-69
2022/07/26 00:40:25;;;;;;;12.60;2.40;;;17.90;99.90;;;;;;5055607;28;20044;-70
2022/07/26 00:42:50;;;;;;;14.10;2.53;;;17.80;99.90;;;;;;5035263;28;20445;-69
2022/07/26 00:45:16;;;;;;;15.07;2.10;;;17.80;99.90;;;;;;5035256;28;20040;-71
2022/07/26 00:47:42;;;;;;;12.32;2.20;;;17.80;99.90;;;;;;5034294;28;20041;-71
2022/07/26 00:50:11;;;;;;;13.52;2.60;;;17.70;99.90;;;;;;5034054;28;20044;-70
2022/07/26 00:52:37;;;;;;;12.07;2.40;;;17.70;99.90;;;;;;5055390;28;20461;-72
2022/07/26 00:55:06;;;;;;;14.65;2.42;;;17.80;99.90;;;;;;5054558;28;20037;-73
2022/07/26 00:57:34;;;;;;;13.07;2.17;;;17.80;99.90;;;;;;5052896;28;20048;-70
2022/07/26 01:00:04;;;;;;;12.60;2.13;;;17.80;99.90;;;;;;5051522;28;20054;-70
2022/07/26 01:02:30;;;;;;;8.77;1.80;;;17.80;99.90;;;;;;5000797;28;20579;-70
2022/07/26 01:04:56;;;;;;;11.63;2.63;;;17.70;99.90;;;;;;5033433;28;20040;-71
2022/07/26 01:07:22;;;;;;;11.85;2.20;;;17.70;99.90;;;;;;5040886;28;20478;-70
2022/07/26 01:09:48;;;;;;;9.77;1.70;;;17.70;99.90;;;;;;5057961;28;20453;-69
2022/07/26 01:12:14;;;;;;;11.57;1.85;;;17.70;99.90;;;;;;5055864;28;20056;-70
2022/07/26 01:14:44;;;;;;;10.77;2.00;;;17.60;99.90;;;;;;5057091;28;20673;-70
2022/07/26 01:17:13;;;;;;;12.05;1.90;;;17.60;99.90;;;;;;5037594;28;20199;-70
2022/07/26 01:19:40;;;;;;;11.48;2.30;;;17.60;99.90;;;;;;5054663;28;20083;-71
2022/07/26 01:22:05;;;;;;;10.20;1.88;;;17.60;99.90;;;;;;5054472;28;20054;-68
2022/07/26 01:24:31;;;;;;;10.23;2.30;;;17.60;99.90;;;;;;5037792;28;20044;-69
2022/07/26 01:26:57;;;;;;;12.00;2.72;;;17.60;99.90;;;;;;5053032;28;20545;-69
2022/07/26 01:29:23;;;;;;;7.28;2.10;;;17.60;99.90;;;;;;5053041;28;20149;-71
2022/07/26 01:31:50;;;;;;;12.38;2.53;;;17.60;99.90;;;;;;5010584;28;20105;-71
2022/07/26 01:34:16;;;;;;;10.20;1.98;;;17.60;99.90;;;;;;5039867;28;20067;-70
2022/07/26 01:36:42;;;;;;;10.25;2.40;;;17.60;99.90;;;;;;5057510;28;20139;-71
2022/07/26 01:39:08;;;;;;;14.20;2.65;;;17.60;99.90;;;;;;5056125;28;20545;-70
2022/07/26 01:41:33;;;;;;;8.95;2.35;;;17.60;99.90;;;;;;5038339;28;20056;-71
2022/07/26 01:44:00;;;;;;;9.73;2.33;;;17.60;99.90;;;;;;5056196;28;20040;-71
2022/07/26 01:46:25;;;;;;;11.63;2.40;;;17.50;99.90;;;;;;5056923;28;20165;-70
2022/07/26 01:48:51;;;;;;;12.85;2.55;;;17.60;99.90;;;;;;5056867;28;20136;-71
2022/07/26 01:51:17;;;;;;;11.68;2.47;;;17.60;99.90;;;;;;5055381;28;20040;-69
2022/07/26 01:53:46;;;;;;;9.07;2.55;;;17.50;99.90;;;;;;5004591;28;20097;-71
2022/07/26 01:56:13;;;;;;;12.07;2.60;;;17.50;99.90;;;;;;5035803;28;20556;-71
2022/07/26 01:58:39;;;;;;;9.70;2.58;;;17.40;99.90;;;;;;5033539;28;20052;-70
2022/07/26 02:01:05;;;;;;;8.63;2.70;;;17.40;99.90;;;;;;5035733;28;20271;-71
2022/07/26 02:03:31;;;;;;;13.27;3.80;;;17.30;99.90;;;;;;5059048;28;20123;-70
2022/07/26 02:05:57;;;;;;;6.55;3.30;;;17.30;99.90;;;;;;5051635;28;20642;-70
2022/07/26 02:08:22;;;;;;;9.05;3.00;;;17.30;99.90;;;;;;5036821;28;20039;-69
2022/07/26 02:11:00;;;;;;;9.82;3.00;;;17.20;99.90;;;;;;5036514;28;20063;-69
2022/07/26 02:13:36;;;;;;;15.50;2.70;;;17.20;99.90;;;;;;5053621;28;20475;-69
2022/07/26 02:16:04;;;;;;;8.88;2.80;;;17.30;99.90;;;;;;5051027;28;20815;-71
2022/07/26 02:18:30;;;;;;;8.52;3.00;;;17.20;99.90;;;;;;5020976;28;20411;-70
2022/07/26 02:20:57;;;;;;;5.75;2.42;;;17.20;99.90;;;;;;5049198;28;20708;-69
2022/07/26 02:23:24;;;;;;;8.82;3.50;;;17.20;99.90;;;;;;5053867;28;20036;-70
2022/07/26 02:25:50;;;;;;;10.68;4.10;;;17.10;99.90;;;;;;5053667;28;20040;-69
2022/07/26 02:28:16;;;;;;;9.98;4.30;;;17.10;99.90;;;;;;5035860;28;20617;-69
2022/07/26 02:30:44;;;;;;;9.90;4.43;;;17.00;99.90;;;;;;5056025;28;20394;-70
2022/07/26 02:33:09;;;;;;;10.32;3.50;;;16.90;99.90;;;;;;5035037;28;21065;-69
2022/07/26 02:35:35;;;;;;;9.00;3.50;;;17.00;99.90;;;;;;5054203;28;20056;-70
2022/07/26 02:38:03;;;;;;;11.52;4.60;;;16.90;99.90;;;;;;5052418;28;20093;-71
2022/07/26 02:40:29;;;;;;;10.48;3.58;;;16.90;99.90;;;;;;5051462;28;20059;-70
2022/07/26 02:42:55;;;;;;;16.08;4.38;;;16.80;99.90;;;;;;5039098;28;20041;-70
2022/07/26 02:45:21;;;;;;;14.32;3.50;;;16.90;99.90;;;;;;5055790;28;20453;-72
2022/07/26 02:47:49;;;;;;;15.50;4.00;;;16.80;99.90;;;;;;5052727;28;20407;-72
2022/07/26 02:50:19;;;;;;;15.20;3.67;;;16.80;99.90;;;;;;5050761;28;20055;-69
2022/07/26 02:52:48;;;;;;;16.52;3.08;;;16.90;99.90;;;;;;5052525;28;20044;-68
2022/07/26 02:55:15;;;;;;;16.80;3.60;;;17.00;99.90;;;;;;5055846;28;20054;-70
2022/07/26 02:57:41;;;;;;;16.80;2.45;;;16.80;99.90;;;;;;5034675;28;20147;-69
2022/07/26 03:00:10;;;;;;;14.73;2.65;;;16.90;99.90;;;;;;5051317;28;20037;-69
2022/07/26 03:02:35;;;;;;;16.42;2.95;;;16.80;99.90;;;;;;5053971;28;20060;-69
2022/07/26 03:05:02;;;;;;;13.77;2.38;;;16.80;99.90;;;;;;5022872;28;20526;-69
2022/07/26 03:07:28;;;;;;;16.85;1.70;;;16.80;99.90;;;;;;5053147;28;20105;-70
2022/07/26 03:09:53;;;;;;;16.35;1.77;;;16.80;99.90;;;;;;5053872;28;20062;-69
2022/07/26 03:12:19;;;;;;;11.70;1.50;;;16.70;99.90;;;;;;5049183;28;20436;-69
2022/07/26 03:14:45;;;;;;;19.10;1.83;;;16.70;99.90;;;;;;5049904;28;20040;-69
2022/07/26 03:17:10;;;;;;;14.80;1.35;;;16.70;99.90;;;;;;5054746;28;20056;-69
2022/07/26 03:19:36;;;;;;;9.90;0.95;;;16.70;99.90;;;;;;5054888;28;20087;-69
2022/07/26 03:22:02;;;;;;;9.13;0.98;;;16.60;99.90;;;;;;5053626;28;20114;-72
2022/07/26 03:24:27;;;;;;;6.53;0.60;;;16.70;99.90;;;;;;5054884;28;20368;-68
2022/07/26 03:26:53;;;;;;;11.40;0.80;;;16.60;99.90;;;;;;5055362;28;20349;-69
2022/07/26 03:29:19;;;;;;;12.63;1.02;;;16.60;99.90;;;;;;5021465;28;20060;-69
2022/07/26 03:31:44;;;;;;;8.43;0.50;;;16.60;99.90;;;;;;5053739;28;20068;-72
2022/07/26 03:34:10;;;;;;;7.90;0.63;;;16.50;99.90;;;;;;5041635;28;20137;-73
2022/07/26 03:36:36;;;;;;;5.00;0.68;;;16.50;99.90;;;;;;5049792;28;20087;-68
2022/07/26 03:39:02;;;;;;;6.38;0.57;;;16.50;99.90;;;;;;5038593;28;20095;-68
2022/07/26 03:41:30;;;;;;;10.00;0.85;;;16.40;99.90;;;;;;5053708;28;20574;-74
2022/07/26 03:43:56;;;;;;;6.45;0.70;;;16.50;99.90;;;;;;5034775;28;20582;-70
2022/07/26 03:46:22;;;;;;;4.97;0.40;;;16.50;99.90;;;;;;5048785;28;20060;-72
2022/07/26 03:48:48;;;;;;;7.90;0.40;;;16.40;99.90;;;;;;5052113;28;20746;-71
2022/07/26 03:51:14;;;;;;;7.10;0.47;;;16.40;99.90;;;;;;5052276;28;20086;-68
2022/07/26 03:53:39;;;;;;;8.13;0.50;;;16.40;99.90;;;;;;5053497;28;20079;-69
2022/07/26 03:58:50;;;;;;;9.00;0.47;;;16.40;99.90;;;;;;5050470;28;20139;-71
2022/07/26 04:01:16;;;;;;;6.63;0.65;;;16.40;99.90;;;;;;5052993;28;20044;-68
2022/07/26 04:03:41;;;;;;;9.82;0.85;;;16.40;99.90;;;;;;5051917;28;20040;-70
2022/07/26 04:06:07;;;;;;;7.78;0.65;;;16.40;99.90;;;;;;5034449;28;20040;-69
2022/07/26 04:08:33;;;;;;;6.45;0.40;;;16.30;99.90;;;;;;5036537;28;20053;-69
2022/07/26 04:10:59;;;;;;;7.07;0.40;;;16.40;99.90;;;;;;5053802;28;20055;-69
2022/07/26 04:13:24;;;;;;;8.80;0.40;;;16.40;99.90;;;;;;5034197;28;20685;-69
2022/07/26 04:16:06;;;;;;;8.27;0.38;;;16.50;99.90;;;;;;4994762;28;20052;-71
2022/07/26 04:18:31;;;;;;;6.55;0.43;;;16.40;99.90;;;;;;5054479;28;20062;-68
2022/07/26 04:20:57;;;;;;;5.55;0.40;;;16.50;99.90;;;;;;5053773;28;20539;-70
2022/07/26 04:23:23;;;;;;;6.60;0.40;;;16.40;99.90;;;;;;5032965;28;20052;-68
2022/07/26 04:25:48;;;;;;;10.50;0.40;;;16.40;99.90;;;;;;5033021;28;20092;-69
2022/07/26 04:28:14;;;;;;;3.83;0.30;;;16.40;99.90;;;;;;5048745;28;20037;-70
2022/07/26 04:30:40;;;;;;;6.28;0.30;;;16.40;99.90;;;;;;5035277;28;20037;-69
2022/07/26 04:33:06;;;;;;;3.42;0.30;;;16.40;99.90;;;;;;5051894;28;20032;-69
2022/07/26 04:35:32;;;;;;;6.97;0.40;;;16.40;99.90;;;;;;5055096;28;20071;-71
2022/07/26 04:37:58;;;;;;;6.00;0.50;;;16.50;99.90;;;;;;5037576;28;20050;-69
2022/07/26 04:40:26;;;;;;;6.20;0.47;;;16.40;99.90;;;;;;5036299;28;20160;-70
2022/07/26 04:42:52;;;;;;;7.25;0.60;;;16.40;99.90;;;;;;5058936;28;20765;-70
2022/07/26 04:45:18;;;;;;;8.07;0.40;;;16.40;99.90;;;;;;5057763;28;20135;-68
2022/07/26 04:47:50;;;;;;;7.28;0.47;;;16.40;99.90;;;;;;5037520;28;20121;-70
2022/07/26 04:50:16;;;;;;;6.53;0.30;;;16.50;99.90;;;;;;5034121;28;20080;-69
2022/07/26 04:52:42;;;;;;;6.13;0.30;;;16.50;99.90;;;;;;5004971;28;20036;-68
2022/07/26 04:55:09;;;;;;;7.57;0.45;;;16.50;99.90;;;;;;5053158;28;20835;-69
2022/07/26 04:57:35;;;;;;;5.80;0.30;;;16.40;99.90;;;;;;5056429;28;20306;-71
2022/07/26 05:00:01;;;;;;;6.22;0.50;;;16.40;99.90;;;;;;5038913;28;20083;-70
2022/07/26 05:02:27;;;;;;;6.10;0.30;;;16.30;99.90;;;;;;5038393;28;20044;-70
2022/07/26 05:04:52;;;;;;;4.63;0.30;;;16.30;99.90;;;;;;5017909;28;20090;-72
2022/07/26 05:07:18;;;;;;;4.68;0.38;;;16.40;99.90;;;;;;5039873;28;20036;-70
2022/07/26 05:09:44;;;;;;;7.45;0.30;;;16.40;99.90;;;;;;5042819;28;20045;-68
2022/07/26 05:12:10;;;;;;;5.90;0.40;;;16.40;99.90;;;;;;5055791;28;20052;-68
2022/07/26 05:14:36;;;;;;;7.18;0.30;;;16.40;99.90;;;;;;5058552;28;20058;-68
2022/07/26 05:17:02;;;;;;;4.25;0.20;;;16.40;99.90;;;;;;5054659;28;20559;-69
2022/07/26 05:19:28;;;;;;;3.28;0.20;;;16.40;99.90;;;;;;5038754;28;20052;-68
2022/07/26 05:21:54;;;;;;;4.53;0.35;;;16.50;99.90;;;;;;5057123;28;20098;-69
2022/07/26 05:24:19;;;;;;;5.65;0.40;;;16.50;99.90;;;;;;5037247;28;20041;-69
2022/07/26 05:26:45;;;;;;;4.63;0.20;;;16.40;99.90;;;;;;5035201;28;20132;-69
2022/07/26 05:29:11;;;;;;;4.22;0.30;;;16.50;99.90;;;;;;5058576;28;20076;-69
2022/07/26 05:31:36;;;;;;;3.63;0.30;;;16.50;99.90;;;;;;5051693;28;20216;-70
2022/07/26 05:34:02;;;;;;;11.02;0.30;;;16.50;99.90;;;;;;5056867;28;20052;-69
2022/07/26 05:36:28;;;;;;;10.13;0.38;;;16.40;99.90;;;;;;5038646;28;20052;-70
2022/07/26 05:38:54;;;;;;;9.50;0.45;;;16.20;99.90;;;;;;5039445;28;20040;-71
2022/07/26 05:41:20;;;;;;;8.75;0.50;;;15.80;99.90;;;;;;5053074;28;20082;-68
2022/07/26 05:43:46;;;;;;;6.82;0.45;;;15.70;99.90;;;;;;5034652;28;20056;-71
2022/07/26 05:46:11;;;;;;;5.35;0.30;;;15.50;99.90;;;;;;5053835;28;20040;-71
2022/07/26 05:48:41;;;;;;;7.35;0.30;;;15.60;99.90;;;;;;5038218;28;20052;-71
2022/07/26 05:51:08;;;;;;;9.00;0.55;;;15.70;99.90;;;;;;5036487;28;20850;-69
2022/07/26 05:53:34;;;;;;;5.10;0.30;;;15.60;99.90;;;;;;5032950;28;20036;-70
2022/07/26 05:55:59;;;;;;;3.75;0.38;;;15.80;99.90;;;;;;5053619;28;20048;-70
2022/07/26 05:58:25;;;;;;;7.25;0.45;;;15.80;99.90;;;;;;5040549;28;20541;-69
2022/07/26 06:00:51;;;;;;;5.82;0.22;;;15.90;99.90;;;;;;5038714;28;20052;-69
2022/07/26 06:03:23;;;;;;;5.07;0.40;;;16.00;99.90;;;;;;5039353;28;20047;-69
2022/07/26 06:05:56;;;;;;;5.70;0.30;;;16.20;99.90;;;;;;5053341;28;20094;-69
2022/07/26 06:08:24;;;;;;;6.80;0.40;;;16.30;99.90;;;;;;5059729;28;20039;-68
2022/07/26 06:10:50;;;;;;;4.78;0.30;;;16.30;99.90;;;;;;5056185;28;20048;-71
2022/07/26 06:13:17;;;;;;;5.15;0.30;;;16.40;99.90;;;;;;5054454;28;20051;-69
2022/07/26 06:15:43;;;;;;;6.45;0.52;;;16.40;99.90;;;;;;5018771;28;20059;-70
2022/07/26 06:18:10;;;;;;;9.00;0.45;;;16.40;99.90;;;;;;5058130;28;20039;-70
2022/07/26 06:20:41;;;;;;;5.90;0.50;;;16.50;99.90;;;;;;5043005;28;20052;-70
2022/07/26 06:23:07;;;;;;;5.28;0.30;;;16.60;99.90;;;;;;5043908;28;20046;-71
2022/07/26 06:25:33;;;;;;;7.00;0.40;;;16.70;99.90;;;;;;5045970;28;20052;-70
2022/07/26 06:28:01;;;;;;;4.70;0.30;;;16.70;99.90;;;;;;5043541;28;20048;-70
2022/07/26 06:30:27;;;;;;;5.47;0.30;;;16.80;99.90;;;;;;5055445;28;20040;-69
2022/07/26 06:32:53;;;;;;;9.25;0.40;;;16.80;99.90;;;;;;5037126;28;20442;-69
2022/07/26 06:35:19;;;;;;;4.43;0.40;;;17.00;99.90;;;;;;5056360;28;20031;-69
2022/07/26 06:37:44;;;;;;;6.50;0.68;;;17.30;99.90;;;;;;5037601;28;20036;-70
2022/07/26 06:40:10;;;;;;;5.63;0.40;;;17.30;99.90;;;;;;5055647;28;20055;-70
2022/07/26 06:42:37;;;;;;;6.53;0.30;;;17.40;99.90;;;;;;5020366;28;20045;-70
2022/07/26 06:45:03;;;;;;;8.23;0.30;;;17.40;99.90;;;;;;5051038;28;20040;-70
2022/07/26 06:47:29;;;;;;;5.82;0.40;;;17.60;99.90;;;;;;5050208;28;20047;-69
2022/07/26 06:49:55;;;;;;;8.98;0.60;;;17.70;99.90;;;;;;5054685;28;20052;-70
2022/07/26 06:52:21;;;;;;;6.88;0.68;;;17.50;99.90;;;;;;5060647;28;20085;-70
2022/07/26 06:54:47;;;;;;;6.50;0.30;;;17.40;99.90;;;;;;5059443;28;20852;-71
2022/07/26 06:57:13;;;;;;;5.03;0.30;;;17.40;99.90;;;;;;5060116;28;20043;-70
2022/07/26 06:59:38;;;;;;;5.93;0.40;;;17.40;99.90;;;;;;5058684;28;20047;-71
2022/07/26 07:02:04;;;;;;;5.85;0.30;;;17.40;99.90;;;;;;5041031;28;20047;-72
2022/07/26 07:04:32;;;;;;;6.13;0.35;;;17.60;99.90;;;;;;5019160;28;20778;-69
2022/07/26 07:07:02;;;;;;;6.85;0.30;;;17.50;99.90;;;;;;5054118;28;20638;-70
2022/07/26 07:09:28;;;;;;;4.53;0.30;;;17.70;99.90;;;;;;5055770;28;20060;-70
2022/07/26 07:11:54;;;;;;;5.22;0.25;;;17.60;99.90;;;;;;5057583;28;20429;-70
2022/07/26 07:14:20;;;;;;;9.35;0.40;;;17.50;99.90;;;;;;5054865;28;20109;-69
2022/07/26 07:16:46;;;;;;;2.80;0.22;;;17.30;99.90;;;;;;5043740;28;20076;-69
2022/07/26 07:19:12;;;;;;;5.40;0.40;;;17.40;99.90;;;;;;5037163;28;20711;-71
2022/07/26 07:21:38;;;;;;;4.85;0.60;;;17.50;99.90;;;;;;5035307;28;21370;-71
2022/07/26 07:24:04;;;;;;;2.78;0.30;;;17.70;99.90;;;;;;5063029;28;20603;-70
2022/07/26 07:26:30;;;;;;;5.20;0.40;;;17.80;99.90;;;;;;5054079;28;20053;-70
2022/07/26 07:28:56;;;;;;;6.30;0.30;;;17.90;99.90;;;;;;5060197;28;20457;-71
2022/07/26 07:31:22;;;;;;;7.50;0.40;;;18.10;99.90;;;;;;5049488;28;20036;-69
2022/07/26 07:33:48;;;;;;;5.40;0.60;;;18.30;99.90;;;;;;5052771;28;20040;-71
2022/07/26 07:36:13;;;;;;;6.72;0.77;;;18.20;99.90;;;;;;5063130;28;20709;-70
2022/07/26 07:38:39;;;;;;;7.47;0.60;;;17.70;99.90;;;;;;5036621;28;20416;-71
2022/07/26 07:41:05;;;;;;;9.07;0.85;;;17.80;99.90;;;;;;5033518;28;20083;-69
2022/07/26 07:43:30;;;;;;;10.75;0.85;;;17.80;99.90;;;;;;5054295;28;20704;-70
2022/07/26 07:45:56;;;;;;;8.38;0.73;;;17.80;99.90;;;;;;5057656;28;20075;-71
2022/07/26 07:48:22;;;;;;;14.50;0.88;;;17.80;99.90;;;;;;5060157;28;20043;-70
2022/07/26 07:50:47;;;;;;;9.93;0.98;;;18.00;99.90;;;;;;5065325;28;20131;-68
2022/07/26 07:53:13;;;;;;;9.00;0.80;;;18.40;99.90;;;;;;5051922;28;20497;-70
2022/07/26 07:55:39;;;;;;;9.80;0.70;;;18.80;99.90;;;;;;5030807;28;20048;-69
2022/07/26 07:58:04;;;;;;;8.07;0.57;;;18.90;99.90;;;;;;5052549;28;20121;-70
2022/07/26 08:00:30;;;;;;;7.72;1.15;;;18.60;99.90;;;;;;5056690;28;20060;-71
2022/07/26 08:02:56;;;;;;;8.20;0.60;;;19.00;99.90;;;;;;5052533;28;20036;-69
2022/07/26 08:05:22;;;;;;;9.63;0.60;;;18.90;99.90;;;;;;5025770;28;20048;-70
2022/07/26 08:07:47;;;;;;;3.60;0.43;;;18.60;99.90;;;;;;5037795;28;20466;-69
2022/07/26 08:10:13;;;;;;;7.70;0.47;;;18.80;99.90;;;;;;5057878;28;20036;-70
2022/07/26 08:12:39;;;;;;;7.70;0.40;;;18.70;99.90;;;;;;5046754;28;20083;-70
2022/07/26 08:15:05;;;;;;;4.85;0.40;;;18.90;99.90;;;;;;5053192;28;20110;-69
2022/07/26 08:17:31;;;;;;;5.68;0.50;;;19.00;99.90;;;;;;5065730;28;20081;-70
2022/07/26 08:19:56;;;;;;;6.85;0.40;;;19.20;99.90;;;;;;5048076;28;20044;-70
2022/07/26 08:22:22;;;;;;;6.55;0.40;;;19.10;99.90;;;;;;5038681;28;20056;-71
2022/07/26 08:24:48;;;;;;;8.68;0.82;;;19.20;99.90;;;;;;5048598;28;20568;-69
2022/07/26 08:27:13;;;;;;;6.43;0.60;;;19.00;99.90;;;;;;5050514;28;20036;-69
2022/07/26 08:29:39;;;;;;;8.23;0.60;;;19.00;99.90;;;;;;5061181;28;20132;-71
2022/07/26 08:32:05;;;;;;;10.07;0.75;;;18.80;99.90;;;;;;5048820;28;20040;-69
2022/07/26 08:34:31;;;;;;;6.63;0.50;;;18.50;99.90;;;;;;5036290;28;20128;-71
2022/07/26 08:36:57;;;;;;;8.15;0.50;;;18.70;99.90;;;;;;5052265;28;20067;-70
2022/07/26 08:39:22;;;;;;;5.10;0.40;;;19.00;99.90;;;;;;5059996;28;20121;-70
2022/07/26 08:41:48;;;;;;;6.53;0.80;;;19.10;99.90;;;;;;5052144;28;20581;-71
2022/07/26 08:44:14;;;;;;;8.05;0.63;;;19.20;99.90;;;;;;5049072;28;20060;-70
2022/07/26 08:46:41;;;;;;;8.13;0.77;;;19.00;99.90;;;;;;5064690;28;20055;-70
2022/07/26 08:49:09;;;;;;;10.23;0.70;;;19.30;99.90;;;;;;5041808;28;20110;-71
2022/07/26 08:51:41;;;;;;;8.05;0.90;;;19.20;99.90;;;;;;5056063;28;20063;-70
2022/07/26 08:54:09;;;;;;;6.85;0.75;;;19.10;99.90;;;;;;5055227;28;20048;-70
2022/07/26 08:56:36;;;;;;;7.50;0.60;;;19.20;99.90;;;;;;5051571;28;20496;-70
2022/07/26 08:59:13;;;;;;;6.68;0.65;;;19.30;99.90;;;;;;5060309;28;20057;-70
2022/07/26 09:02:03;;;;;;;8.68;0.85;;;19.60;99.90;;;;;;5053981;28;20132;-72
2022/07/26 09:04:37;;;;;;;8.90;0.80;;;19.50;99.90;;;;;;5041478;28;20408;-70
2022/07/26 09:07:14;;;;;;;5.90;0.68;;;19.90;99.90;;;;;;5069991;28;20473;-69
2022/07/26 09:09:59;;;;;;;6.47;0.70;;;19.90;99.90;;;;;;5054822;28;20151;-70
2022/07/26 09:12:26;;;;;;;10.05;1.25;;;19.60;99.90;;;;;;5058437;28;20063;-70
2022/07/26 09:14:53;;;;;;;7.47;1.20;;;20.00;99.90;;;;;;5042279;28;20036;-70
2022/07/26 09:17:21;;;;;;;8.55;0.90;;;20.20;99.90;;;;;;5041645;28;20044;-70
2022/07/26 09:20:09;;;;;;;7.20;0.95;;;20.10;99.90;;;;;;5041663;28;20347;-72
2022/07/26 09:22:38;;;;;;;8.35;0.90;;;20.30;99.90;;;;;;5050831;28;20032;-70
2022/07/26 09:25:19;;;;;;;7.50;0.98;;;19.80;99.90;;;;;;5039244;28;20588;-68
2022/07/26 09:27:45;;;;;;;12.85;1.75;;;19.90;99.90;;;;;;5063818;28;20040;-72
2022/07/26 09:30:11;;;;;;;11.60;1.60;;;19.90;99.90;;;;;;5057380;28;20041;-71
2022/07/26 09:32:37;;;;;;;12.98;1.60;;;19.40;99.90;;;;;;5059737;28;20047;-69
2022/07/26 09:35:12;;;;;;;9.20;1.33;;;19.60;99.90;;;;;;5040811;28;20052;-71
2022/07/26 09:37:39;;;;;;;15.48;1.55;;;19.50;99.90;;;;;;5051785;28;20033;-70
2022/07/26 09:40:11;;;;;;;11.55;1.50;;;19.80;99.90;;;;;;5032554;28;20300;-71
2022/07/26 09:42:37;;;;;;;15.43;1.65;;;20.20;99.90;;;;;;5056746;28;20055;-70
2022/07/26 09:45:15;;;;;;;12.73;1.65;;;20.30;99.90;;;;;;5043811;28;20127;-69
2022/07/26 09:47:41;;;;;;;11.85;1.63;;;20.50;99.90;;;;;;5031748;28;20040;-70
2022/07/26 09:50:21;;;;;;;13.98;2.05;;;20.30;99.90;;;;;;5042576;28;20048;-70
2022/07/26 09:53:02;;;;;;;13.73;2.08;;;20.10;99.90;;;;;;5036504;28;20569;-70
2022/07/26 09:55:29;;;;;;;13.68;1.60;;;19.50;99.90;;;;;;5061364;28;20416;-69
2022/07/26 09:57:56;;;;;;;12.70;1.45;;;19.70;99.90;;;;;;5041161;28;20636;-70
2022/07/26 10:00:24;;;;;;;12.88;1.48;;;19.60;99.90;;;;;;5052059;28;20051;-71
2022/07/26 10:02:51;;;;;;;13.65;1.60;;;19.20;99.90;;;;;;5053655;28;20052;-69
2022/07/26 10:05:17;;;;;;;10.77;1.27;;;19.30;99.90;;;;;;5018701;28;20075;-70
2022/07/26 10:07:43;;;;;;;15.55;1.30;;;19.20;99.90;;;;;;5065679;28;20539;-70
2022/07/26 10:10:17;;;;;;;8.85;1.25;;;19.30;99.90;;;;;;5051548;28;20446;-70
2022/07/26 10:12:45;;;;;;;9.43;1.10;;;19.40;99.90;;;;;;5049683;28;20044;-69
2022/07/26 10:15:49;;;;;;;10.80;1.40;;;19.30;99.90;;;;;;5042658;28;20040;-70
2022/07/26 10:18:37;;;;;;;13.85;1.50;;;19.70;99.90;;;;;;5032992;28;20048;-71
2022/07/26 10:21:17;;;;;;;13.45;1.00;;;19.80;99.90;;;;;;5036194;28;20138;-71
2022/07/26 10:23:48;;;;;;;10.00;1.20;;;19.60;99.90;;;;;;5034433;28;20048;-71
2022/07/26 10:26:31;;;;;;;9.93;1.27;;;19.30;99.90;;;;;;5059849;28;20052;-71
2022/07/26 10:29:15;;;;;;;12.50;1.17;;;19.60;99.90;;;;;;5050541;28;20442;-70
2022/07/26 10:31:45;;;;;;;6.68;0.75;;;19.70;99.90;;;;;;5033522;28;20273;-70
2022/07/26 10:34:30;;;;;;;8.18;0.80;;;19.90;99.90;;;;;;5051789;28;20048;-71
2022/07/26 10:37:10;;;;;;;7.63;0.80;;;19.80;99.90;;;;;;5035727;28;20050;-71
2022/07/26 10:39:36;;;;;;;10.50;0.90;;;20.10;99.90;;;;;;5041568;28;20445;-70
2022/07/26 10:42:07;;;;;;;8.63;1.02;;;20.10;99.90;;;;;;5066766;28;20772;-70
2022/07/26 10:44:38;;;;;;;8.50;0.75;;;20.10;99.90;;;;;;5051444;28;20115;-70
2022/07/26 10:47:06;;;;;;;8.00;1.02;;;20.50;99.90;;;;;;5062359;28;20054;-71
2022/07/26 10:49:36;;;;;;;9.02;0.73;;;20.10;99.90;;;;;;5050353;28;20578;-70
2022/07/26 10:52:14;;;;;;;5.47;0.68;;;20.10;99.90;;;;;;5058974;28;20051;-70
2022/07/26 10:54:58;;;;;;;8.60;0.98;;;20.10;99.90;;;;;;5067454;28;20108;-68
2022/07/26 10:57:29;;;;;;;8.13;0.85;;;19.50;99.90;;;;;;5041883;28;20058;-71
2022/07/26 10:59:56;;;;;;;8.82;0.90;;;20.00;99.90;;;;;;5035764;28;20560;-71
2022/07/26 11:02:27;;;;;;;7.75;0.70;;;19.80;99.90;;;;;;5060096;28;20653;-70
2022/07/26 11:05:15;;;;;;;8.32;0.60;;;20.00;99.90;;;;;;5050083;28;20303;-69
2022/07/26 11:08:09;;;;;;;7.78;0.68;;;20.30;99.90;;;;;;5058703;28;20035;-70
2022/07/26 11:10:41;;;;;;;7.53;0.80;;;20.20;99.90;;;;;;5061162;28;20080;-70
2022/07/26 11:13:19;;;;;;;7.55;0.77;;;20.50;99.90;;;;;;5059259;28;20080;-72
2022/07/26 11:16:11;;;;;;;8.40;0.77;;;20.40;99.90;;;;;;5053012;28;20044;-71
2022/07/26 11:18:37;;;;;;;6.05;0.60;;;20.20;99.90;;;;;;5025207;28;20110;-69
2022/07/26 11:21:14;;;;;;;5.95;0.55;;;20.60;99.90;;;;;;5059026;28;20720;-70
2022/07/26 11:23:44;;;;;;;7.88;0.90;;;20.90;99.90;;;;;;5058714;28;20079;-71
2022/07/26 11:26:15;;;;;;;5.88;0.45;;;21.60;99.90;;;;;;5063637;28;20439;-71
2022/07/26 11:28:48;;;;;;;5.90;0.40;;;21.50;99.90;;;;;;5048263;28;20060;-70
2022/07/26 11:31:14;;;;;;;;;;;21.10;99.90;;;;;;5062668;28;20518;-71
2022/07/26 11:33:45;;;;;;;5.25;0.45;;;20.60;99.90;;;;;;5049292;28;19931;-70
2022/07/26 11:36:11;;;;;;;8.35;0.50;;;20.70;99.90;;;;;;5065513;28;20127;-70
2022/07/26 11:38:48;;;;;;;5.03;0.60;;;20.60;99.90;;;;;;5054007;28;20070;-70
2022/07/26 11:41:28;;;;;;;6.90;0.60;;;20.10;99.90;;;;;;5059863;28;20588;-72
2022/07/26 11:43:55;;;;;;;5.25;0.50;;;20.20;99.90;;;;;;5051348;28;20083;-71
2022/07/26 11:46:20;;;;;;;5.28;0.45;;;20.50;99.90;;;;;;5051317;28;20051;-70
2022/07/26 11:48:49;;;;;;;5.78;0.50;;;20.50;99.90;;;;;;5064656;28;20040;-70
2022/07/26 11:51:18;;;;;;;4.15;0.40;;;20.80;99.90;;;;;;5057037;28;20052;-71
2022/07/26 11:53:45;;;;;;;6.50;0.60;;;21.20;99.90;;;;;;5062046;28;20581;-70
2022/07/26 11:56:20;;;;;;;5.03;0.40;;;21.30;99.90;;;;;;5035023;28;20051;-70
2022/07/26 11:58:49;;;;;;;5.38;0.40;;;21.20;97.50;;;;;;5058196;28;20048;-70
2022/07/26 12:01:18;;;;;;;3.72;0.30;;;21.10;97.90;;;;;;5061009;28;20480;-71
2022/07/26 12:03:46;;;;;;;3.08;0.30;;;21.00;99.10;;;;;;5049505;28;20783;-72
2022/07/26 12:06:16;;;;;;;3.75;0.30;;;21.30;98.20;;;;;;5042617;28;20048;-70
2022/07/26 12:08:43;;;;;;;6.22;0.50;;;21.20;99.90;;;;;;5056875;28;20048;-69
2022/07/26 12:11:09;;;;;;;4.72;0.40;;;20.60;99.90;;;;;;5060591;28;20076;-69
2022/07/26 12:13:51;;;;;;;5.53;0.30;;;21.20;99.90;;;;;;5059093;28;20467;-70
2022/07/26 12:16:42;;;;;;;5.18;0.40;;;20.70;99.90;;;;;;5062513;28;20614;-71
2022/07/26 12:19:20;;;;;;;6.68;0.70;;;20.30;99.90;;;;;;5043679;28;20628;-71
2022/07/26 12:21:47;;;;;;;6.43;0.75;;;20.10;99.90;;;;;;5050129;28;20112;-70
2022/07/26 12:24:38;;;;;;;8.20;0.60;;;20.50;99.90;;;;;;5049769;28;20123;-70
2022/07/26 12:27:11;;;;;;;6.57;0.57;;;21.50;99.90;;;;;;5049489;28;20048;-70
2022/07/26 12:29:37;;;;;;;;;;;21.80;99.90;;;;;;5056777;28;20036;-71
2022/07/26 12:32:08;;;;;;;7.18;0.70;;;20.90;99.90;;;;;;5036227;28;19946;-70
2022/07/26 12:34:35;;;;;;;5.40;0.50;;;20.20;99.90;;;;;;5053214;28;20039;-70
2022/07/26 12:37:16;;;;;;;6.03;0.55;;;20.20;99.90;;;;;;5057419;28;20049;-71
2022/07/26 12:39:58;;;;;;;4.40;0.47;;;20.60;99.90;;;;;;5057856;28;20052;-71
2022/07/26 12:42:30;;;;;;;3.25;0.45;;;20.70;99.90;;;;;;5048400;28;20243;-72
2022/07/26 12:44:57;;;;;;;4.00;0.37;;;20.60;99.90;;;;;;5047290;28;20098;-71
2022/07/26 12:47:23;;;;;;;5.78;0.63;;;20.90;99.90;;;;;;5056482;28;20342;-71
2022/07/26 12:49:49;;;;;;;6.70;0.52;;;20.60;99.90;;;;;;5019918;28;20794;-70
2022/07/26 12:52:19;;;;;;;6.72;0.43;;;20.60;99.90;;;;;;5033104;28;20036;-72